This is the latest recevied weather packets stored in our database for station/object EA5GTE-12. If no packets are shown the sender has not sent any weather packets the latest 10 day(s).
| Time | Temp. | Humidity | Pressure | Rain* | Wind** | Luminosity | Snow |
|---|---|---|---|---|---|---|---|
| 1787629091 | 15.56° C | 100% | 939.4 hPa | - | - | - | - |
| 1787628191 | 15.56° C | 100% | 939.4 hPa | - | - | - | - |
| 1787627291 | 16.11° C | 100% | 939.3 hPa | - | - | - | - |
| 1787626391 | 16.67° C | 100% | 939.1 hPa | - | - | - | - |
| 1787625491 | 17.22° C | 100% | 939.2 hPa | - | - | - | - |
| 1787624591 | 17.22° C | 100% | 939.1 hPa | - | - | - | - |
| 1787623691 | 17.22° C | 100% | 939.2 hPa | - | - | - | - |
| 1787622791 | 17.22° C | 100% | 939.3 hPa | - | - | - | - |
| 1787621891 | 17.78° C | 98% | 939.3 hPa | - | - | - | - |
| 1787620991 | 17.78° C | 95% | 939.3 hPa | - | - | - | - |
| 1787620091 | 17.78° C | 90% | 939.3 hPa | - | - | - | - |
| 1787619191 | 17.78° C | 89% | 939.5 hPa | - | - | - | - |
| 1787618291 | 18.33° C | 86% | 939.2 hPa | - | - | - | - |
| 1787617391 | 17.78° C | 90% | 939.4 hPa | - | - | - | - |
| 1787616491 | 17.78° C | 88% | 939.5 hPa | - | - | - | - |
| 1787615591 | 18.33° C | 86% | 939.6 hPa | - | - | - | - |
| 1787614691 | 17.78° C | 89% | 939.7 hPa | - | - | - | - |
| 1787613791 | 17.78° C | 86% | 939.6 hPa | - | - | - | - |
| 1787612891 | 17.78° C | 84% | 939.4 hPa | - | - | - | - |
| 1787611990 | 18.33° C | 80% | 939.2 hPa | - | - | - | - |
| 1787611090 | 18.33° C | 78% | 939.3 hPa | - | - | - | - |
| 1787609292 | 19.44° C | 69% | 939.1 hPa | - | - | - | - |
| 1787608392 | 18.89° C | 68% | 939.2 hPa | - | - | - | - |
| 1787607492 | 20° C | 64% | 939.1 hPa | - | - | - | - |
| 1787606592 | 20.56° C | 63% | 939.1 hPa | - | - | - | - |
* Rain since midnight (hover to see other rain measurements)
** Current wind speed in m/s (hover to see current wind gust speed)